createdAt,value
2019-02-21T17:03:49.801Z,47.86
2019-02-21T17:08:53.561Z,48.43
2019-02-21T17:13:57.617Z,48.59
2019-02-21T17:19:03.283Z,49.04
2019-02-21T17:24:08.016Z,49.76
2019-02-21T17:29:11.283Z,50.65
2019-02-21T17:34:15.797Z,50.67
2019-02-21T17:39:19.256Z,50.58
2019-02-21T17:44:23.030Z,49.97
2019-02-21T17:49:26.189Z,49.88
2019-02-21T17:54:29.460Z,49.31
2019-02-21T17:59:35.420Z,49.16
2019-02-21T18:04:38.659Z,49.04
2019-02-21T18:09:41.900Z,48.86
2019-02-21T18:14:45.335Z,48.95
2019-02-21T18:19:50.973Z,48.60
2019-02-21T18:24:54.434Z,48.52
2019-02-21T18:29:58.023Z,48.40
2019-02-21T18:35:01.595Z,48.41
2019-02-21T18:40:16.911Z,48.31
2019-02-21T18:45:12.537Z,48.74
2019-02-21T18:50:15.960Z,48.82
2019-02-21T18:55:22.566Z,47.83
2019-02-21T19:00:26.627Z,48.36
2019-02-21T19:05:35.954Z,48.36
2019-02-21T19:10:36.310Z,48.22
2019-02-21T19:15:40.012Z,48.50
2019-02-21T19:20:43.230Z,48.89
2019-02-21T19:25:47.094Z,49.82
2019-02-21T19:30:55.145Z,49.84
2019-02-21T19:35:58.519Z,49.80
2019-02-21T19:41:04.462Z,49.54
2019-02-21T19:46:08.054Z,50.27
2019-02-21T19:51:11.206Z,49.96
2019-02-21T19:56:15.000Z,50.69
2019-02-21T20:01:18.415Z,50.76
2019-02-21T20:06:21.484Z,50.72
2019-02-21T20:11:24.947Z,50.91
2019-02-21T20:16:28.250Z,51.49
2019-02-21T20:21:31.575Z,52.16
2019-02-21T20:26:34.656Z,52.87
2019-02-21T20:31:37.894Z,53.46
2019-02-21T20:36:50.753Z,54.12
2019-02-21T20:41:46.949Z,54.45
2019-02-21T20:46:50.358Z,55.61
2019-02-21T20:51:53.700Z,56.19
2019-02-21T20:56:57.055Z,57.02
2019-02-21T21:02:00.392Z,57.03
2019-02-21T21:07:04.800Z,57.54
2019-02-21T21:12:07.999Z,57.50
2019-02-21T21:17:12.432Z,57.59
2019-02-21T21:22:17.397Z,57.67
2019-02-21T21:27:20.501Z,57.82
2019-02-21T21:32:23.825Z,58.05
2019-02-21T21:37:27.406Z,58.51
2019-02-21T21:42:30.473Z,58.15
2019-02-21T21:47:33.602Z,58.92
2019-02-21T21:52:36.820Z,58.61
2019-02-21T21:57:40.128Z,58.96
2019-02-21T22:02:43.347Z,59.52
2019-02-21T22:07:49.228Z,58.90
2019-02-21T22:12:52.198Z,58.76
2019-02-21T22:17:55.554Z,58.54
2019-02-21T22:23:02.113Z,58.49
2019-02-21T22:28:05.488Z,59.21
2019-02-21T22:33:08.525Z,59.26
2019-02-21T22:38:11.782Z,59.09
2019-02-21T22:43:15.565Z,58.83
2019-02-21T22:48:19.528Z,59.08
2019-02-21T22:53:22.910Z,59.75
2019-02-21T22:58:26.205Z,59.67
2019-02-21T23:03:47.945Z,59.54
2019-02-21T23:08:52.667Z,59.65
2019-02-21T23:13:56.081Z,60.72
2019-02-21T23:18:59.363Z,60.26
2019-02-21T23:24:03.528Z,61.52
2019-02-21T23:29:08.391Z,61.53
2019-02-21T23:34:17.415Z,62.04
2019-02-21T23:39:20.576Z,61.45
2019-02-21T23:44:23.784Z,61.75
2019-02-21T23:49:26.999Z,61.66
2019-02-21T23:54:30.401Z,61.42
2019-02-21T23:59:33.668Z,61.69
